AAL2219 MMUN-KDFW
Flight info
| Callsign | AAL2219 |
|---|---|
| Flight time | 2h 39m |
| Altitude | 32000 |
| Route | NOSUG2A NOSUG UT27 OMVIP UT45 IRDOV L214 LEV DCT LSU DCT AEX DCT PNUTS BEREE3 |
| Aircraft | A321/M-SDE3FGHIRWY/LB1 |
Departure
| Time | 2026-05-05 18:52 |
|---|---|
| Airport | Cancún International Airport (MMUN) |
Arrival
| Time | 2026-05-05 21:32 |
|---|---|
| Airport | Dallas Fort Worth International Airport (KDFW) |
| Time | Latitude | Longitude | Altitude | Speed | Heading |
|---|---|---|---|---|---|
| 2026-05-05 18:15 | 21.03649 | -86.87074 | 30 ft | 0 kts | 34° |
| 2026-05-05 18:32 | 21.03644 | -86.87078 | 29 ft | 4 kts | 34° |
| 2026-05-05 18:32 | 21.03622 | -86.87093 | 29 ft | 4 kts | 34° |
| 2026-05-05 18:33 | 21.03598 | -86.87107 | 29 ft | 4 kts | 15° |
| 2026-05-05 18:33 | 21.03573 | -86.87109 | 29 ft | 4 kts | 338° |
| 2026-05-05 18:33 | 21.03560 | -86.87100 | 29 ft | 0 kts | 308° |
| 2026-05-05 18:36 | 21.03562 | -86.87103 | 29 ft | 2 kts | 308° |
| 2026-05-05 18:36 | 21.03591 | -86.87146 | 29 ft | 11 kts | 304° |
| 2026-05-05 18:36 | 21.03634 | -86.87215 | 30 ft | 11 kts | 303° |
| 2026-05-05 18:37 | 21.03678 | -86.87286 | 30 ft | 12 kts | 303° |
| 2026-05-05 18:37 | 21.03730 | -86.87369 | 30 ft | 15 kts | 303° |
| 2026-05-05 18:37 | 21.03787 | -86.87461 | 30 ft | 14 kts | 303° |
| 2026-05-05 18:37 | 21.03827 | -86.87536 | 30 ft | 11 kts | 283° |
| 2026-05-05 18:38 | 21.03816 | -86.87617 | 30 ft | 11 kts | 264° |
| 2026-05-05 18:38 | 21.03844 | -86.87687 | 31 ft | 11 kts | 303° |
| 2026-05-05 18:38 | 21.03885 | -86.87754 | 31 ft | 11 kts | 303° |
| 2026-05-05 18:38 | 21.03929 | -86.87825 | 30 ft | 12 kts | 303° |
| 2026-05-05 18:39 | 21.03976 | -86.87899 | 30 ft | 12 kts | 303° |
| 2026-05-05 18:39 | 21.04023 | -86.87975 | 30 ft | 13 kts | 304° |
| 2026-05-05 18:39 | 21.04073 | -86.88054 | 30 ft | 13 kts | 304° |
| 2026-05-05 18:39 | 21.04123 | -86.88135 | 30 ft | 13 kts | 304° |
| 2026-05-05 18:40 | 21.04175 | -86.88218 | 30 ft | 13 kts | 304° |
| 2026-05-05 18:40 | 21.04227 | -86.88301 | 30 ft | 13 kts | 303° |
| 2026-05-05 18:40 | 21.04280 | -86.88385 | 30 ft | 14 kts | 304° |
| 2026-05-05 18:40 | 21.04334 | -86.88471 | 30 ft | 14 kts | 304° |
| 2026-05-05 18:41 | 21.04390 | -86.88558 | 31 ft | 14 kts | 304° |
| 2026-05-05 18:41 | 21.04446 | -86.88646 | 31 ft | 15 kts | 304° |
| 2026-05-05 18:41 | 21.04501 | -86.88733 | 30 ft | 14 kts | 304° |
| 2026-05-05 18:41 | 21.04554 | -86.88818 | 30 ft | 14 kts | 304° |
| 2026-05-05 18:42 | 21.04609 | -86.88905 | 30 ft | 14 kts | 304° |
| 2026-05-05 18:42 | 21.04643 | -86.88978 | 30 ft | 9 kts | 272° |
| 2026-05-05 18:42 | 21.04614 | -86.89021 | 31 ft | 0 kts | 216° |
| 2026-05-05 18:50 | 21.04612 | -86.89023 | 31 ft | 2 kts | 216° |
| 2026-05-05 18:51 | 21.04584 | -86.89045 | 31 ft | 5 kts | 216° |
| 2026-05-05 18:51 | 21.04552 | -86.89069 | 32 ft | 7 kts | 212° |
| 2026-05-05 18:51 | 21.04505 | -86.89053 | 32 ft | 8 kts | 128° |
| 2026-05-05 18:51 | 21.04454 | -86.88974 | 32 ft | 20 kts | 124° |
| 2026-05-05 18:52 | 21.04246 | -86.88640 | 35 ft | 86 kts | 123° |
| 2026-05-05 18:52 | 21.03802 | -86.87931 | 34 ft | 141 kts | 124° |
| 2026-05-05 18:52 | 21.03174 | -86.86930 | 106 ft | 177 kts | 124° |
| 2026-05-05 18:52 | 21.02507 | -86.85845 | 774 ft | 172 kts | 121° |
| 2026-05-05 18:53 | 21.01878 | -86.84752 | 1366 ft | 173 kts | 120° |
| 2026-05-05 18:53 | 21.01632 | -86.83483 | 1735 ft | 187 kts | 80° |
| 2026-05-05 18:53 | 21.02392 | -86.82281 | 1856 ft | 212 kts | 40° |
| 2026-05-05 18:53 | 21.03684 | -86.81362 | 1980 ft | 234 kts | 33° |
| 2026-05-05 18:54 | 21.05177 | -86.80462 | 2158 ft | 257 kts | 31° |
| 2026-05-05 18:54 | 21.06779 | -86.79534 | 2667 ft | 264 kts | 30° |
| 2026-05-05 18:54 | 21.08415 | -86.78599 | 3275 ft | 269 kts | 26° |
| 2026-05-05 18:54 | 21.10254 | -86.78155 | 3784 ft | 278 kts | 1° |
| 2026-05-05 18:55 | 21.12181 | -86.78438 | 3938 ft | 281 kts | 349° |
| 2026-05-05 18:55 | 21.14102 | -86.78845 | 3960 ft | 281 kts | 349° |
| 2026-05-05 18:55 | 21.16020 | -86.79256 | 3964 ft | 281 kts | 349° |
| 2026-05-05 18:55 | 21.17935 | -86.79664 | 3961 ft | 280 kts | 349° |
| 2026-05-05 18:56 | 21.19857 | -86.80065 | 4003 ft | 283 kts | 350° |
| 2026-05-05 18:56 | 21.21794 | -86.80453 | 4634 ft | 283 kts | 350° |
| 2026-05-05 18:56 | 21.23730 | -86.80830 | 5269 ft | 284 kts | 350° |
| 2026-05-05 18:56 | 21.25679 | -86.81205 | 5888 ft | 285 kts | 350° |
| 2026-05-05 18:57 | 21.27639 | -86.81583 | 6503 ft | 286 kts | 350° |
| 2026-05-05 18:57 | 21.29604 | -86.81962 | 7104 ft | 287 kts | 349° |
| 2026-05-05 18:57 | 21.31550 | -86.82338 | 7680 ft | 289 kts | 349° |
| 2026-05-05 18:57 | 21.33534 | -86.82722 | 8264 ft | 290 kts | 349° |
| 2026-05-05 18:58 | 21.35524 | -86.83108 | 8849 ft | 291 kts | 349° |
| 2026-05-05 18:58 | 21.37520 | -86.83495 | 9448 ft | 292 kts | 348° |
| 2026-05-05 18:58 | 21.39524 | -86.83886 | 10011 ft | 294 kts | 348° |
| 2026-05-05 18:58 | 21.41570 | -86.84287 | 10240 ft | 308 kts | 349° |
| 2026-05-05 18:59 | 21.43736 | -86.84710 | 10374 ft | 325 kts | 348° |
| 2026-05-05 18:59 | 21.46017 | -86.85157 | 10489 ft | 341 kts | 348° |
| 2026-05-05 18:59 | 21.48396 | -86.85622 | 10750 ft | 351 kts | 348° |
| 2026-05-05 18:59 | 21.50806 | -86.86092 | 11202 ft | 354 kts | 348° |
| 2026-05-05 19:00 | 21.53240 | -86.86565 | 11685 ft | 356 kts | 349° |
| 2026-05-05 19:00 | 21.55685 | -86.87040 | 12143 ft | 358 kts | 349° |
| 2026-05-05 19:00 | 21.58143 | -86.87517 | 12599 ft | 361 kts | 349° |
| 2026-05-05 19:00 | 21.60625 | -86.87999 | 13067 ft | 363 kts | 349° |
| 2026-05-05 19:01 | 21.63116 | -86.88482 | 13508 ft | 365 kts | 349° |
| 2026-05-05 19:01 | 21.65629 | -86.88971 | 13929 ft | 368 kts | 349° |
| 2026-05-05 19:01 | 21.68155 | -86.89463 | 14333 ft | 369 kts | 349° |
| 2026-05-05 19:01 | 21.70688 | -86.89959 | 14749 ft | 370 kts | 349° |
| 2026-05-05 19:02 | 21.73202 | -86.90449 | 15163 ft | 372 kts | 349° |
| 2026-05-05 19:02 | 21.75748 | -86.90943 | 15589 ft | 373 kts | 349° |
| 2026-05-05 19:02 | 21.78306 | -86.91441 | 16029 ft | 374 kts | 349° |
| 2026-05-05 19:02 | 21.80867 | -86.91943 | 16456 ft | 375 kts | 349° |
| 2026-05-05 19:03 | 21.83436 | -86.92449 | 16876 ft | 376 kts | 349° |
| 2026-05-05 19:03 | 21.86016 | -86.92929 | 17296 ft | 377 kts | 353° |
| 2026-05-05 19:03 | 21.88640 | -86.93169 | 17726 ft | 379 kts | 355° |
| 2026-05-05 19:03 | 21.91269 | -86.93391 | 18138 ft | 380 kts | 355° |
| 2026-05-05 19:04 | 21.93909 | -86.93616 | 18518 ft | 382 kts | 355° |
| 2026-05-05 19:04 | 21.96561 | -86.93842 | 18860 ft | 384 kts | 355° |
| 2026-05-05 19:04 | 21.99233 | -86.94070 | 19201 ft | 386 kts | 355° |
| 2026-05-05 19:04 | 22.01919 | -86.94299 | 19538 ft | 388 kts | 355° |
| 2026-05-05 19:05 | 22.04619 | -86.94530 | 19876 ft | 391 kts | 354° |
| 2026-05-05 19:05 | 22.06416 | -86.94683 | 20113 ft | 392 kts | 354° |
| 2026-05-05 19:05 | 22.09150 | -86.94917 | 20441 ft | 395 kts | 354° |
| 2026-05-05 19:05 | 22.11897 | -86.95152 | 20782 ft | 397 kts | 354° |
| 2026-05-05 19:06 | 22.14658 | -86.95387 | 21122 ft | 399 kts | 354° |
| 2026-05-05 19:06 | 22.17434 | -86.95622 | 21444 ft | 401 kts | 354° |
| 2026-05-05 19:06 | 22.20224 | -86.95860 | 21764 ft | 404 kts | 354° |
| 2026-05-05 19:06 | 22.23031 | -86.96101 | 22069 ft | 406 kts | 354° |
| 2026-05-05 19:07 | 22.25855 | -86.96348 | 22370 ft | 408 kts | 353° |
| 2026-05-05 19:07 | 22.28694 | -86.96597 | 22664 ft | 410 kts | 353° |
| 2026-05-05 19:07 | 22.31544 | -86.96845 | 22951 ft | 412 kts | 353° |
| 2026-05-05 19:07 | 22.34413 | -86.97092 | 23248 ft | 414 kts | 353° |
| 2026-05-05 19:08 | 22.37297 | -86.97339 | 23531 ft | 416 kts | 353° |
| 2026-05-05 19:08 | 22.40156 | -86.97585 | 23771 ft | 418 kts | 353° |
| 2026-05-05 19:08 | 22.43064 | -86.97837 | 24019 ft | 420 kts | 353° |
| 2026-05-05 19:08 | 22.45985 | -86.98090 | 24279 ft | 421 kts | 353° |
| 2026-05-05 19:09 | 22.48911 | -86.98342 | 24540 ft | 423 kts | 353° |
| 2026-05-05 19:09 | 22.51847 | -86.98595 | 24787 ft | 424 kts | 353° |
| 2026-05-05 19:09 | 22.54796 | -86.98849 | 25027 ft | 426 kts | 353° |
| 2026-05-05 19:09 | 22.57756 | -86.99101 | 25260 ft | 428 kts | 353° |
| 2026-05-05 19:10 | 22.60730 | -86.99354 | 25492 ft | 429 kts | 353° |
| 2026-05-05 19:10 | 22.63714 | -86.99606 | 25725 ft | 431 kts | 353° |
| 2026-05-05 19:10 | 22.66715 | -86.99864 | 25955 ft | 433 kts | 353° |
| 2026-05-05 19:10 | 22.69720 | -87.00129 | 26176 ft | 434 kts | 353° |
| 2026-05-05 19:11 | 22.72742 | -87.00395 | 26408 ft | 436 kts | 353° |
| 2026-05-05 19:11 | 22.75770 | -87.00660 | 26638 ft | 438 kts | 353° |
| 2026-05-05 19:11 | 22.78818 | -87.00925 | 26875 ft | 439 kts | 353° |
| 2026-05-05 19:11 | 22.81869 | -87.01192 | 27099 ft | 440 kts | 353° |
| 2026-05-05 19:12 | 22.84926 | -87.01453 | 27326 ft | 442 kts | 353° |
| 2026-05-05 19:12 | 22.88002 | -87.01713 | 27542 ft | 444 kts | 353° |
| 2026-05-05 19:12 | 22.91050 | -87.01972 | 27754 ft | 445 kts | 353° |
| 2026-05-05 19:12 | 22.94144 | -87.02241 | 27958 ft | 447 kts | 353° |
| 2026-05-05 19:13 | 22.97247 | -87.02513 | 28155 ft | 449 kts | 353° |
| 2026-05-05 19:13 | 23.00405 | -87.02787 | 28361 ft | 450 kts | 353° |
| 2026-05-05 19:13 | 23.03461 | -87.03262 | 28551 ft | 449 kts | 344° |
| 2026-05-05 19:13 | 23.06426 | -87.04298 | 28744 ft | 448 kts | 335° |
| 2026-05-05 19:14 | 23.09185 | -87.05849 | 28953 ft | 446 kts | 325° |
| 2026-05-05 19:14 | 23.11709 | -87.07807 | 29193 ft | 446 kts | 321° |
| 2026-05-05 19:14 | 23.14210 | -87.09825 | 29409 ft | 448 kts | 322° |
| 2026-05-05 19:14 | 23.16718 | -87.11838 | 29613 ft | 449 kts | 322° |
| 2026-05-05 19:15 | 23.19226 | -87.13848 | 29915 ft | 448 kts | 322° |
| 2026-05-05 19:15 | 23.21734 | -87.15861 | 30212 ft | 447 kts | 322° |
| 2026-05-05 19:15 | 23.24234 | -87.17874 | 30473 ft | 446 kts | 322° |
| 2026-05-05 19:15 | 23.26720 | -87.19883 | 30749 ft | 445 kts | 322° |
| 2026-05-05 19:16 | 23.29199 | -87.21892 | 31027 ft | 444 kts | 322° |
| 2026-05-05 19:16 | 23.31668 | -87.23891 | 31307 ft | 442 kts | 322° |
| 2026-05-05 19:16 | 23.34138 | -87.25888 | 31589 ft | 441 kts | 322° |
| 2026-05-05 19:16 | 23.36596 | -87.27874 | 31867 ft | 440 kts | 322° |
| 2026-05-05 19:17 | 23.39049 | -87.29854 | 31985 ft | 438 kts | 322° |
| 2026-05-05 19:17 | 23.41482 | -87.31820 | 32024 ft | 432 kts | 322° |
| 2026-05-05 19:17 | 23.46279 | -87.35698 | 32010 ft | 428 kts | 322° |
| 2026-05-05 19:18 | 23.51052 | -87.39564 | 32010 ft | 428 kts | 322° |
| 2026-05-05 19:18 | 23.55828 | -87.43438 | 32010 ft | 427 kts | 322° |
| 2026-05-05 19:19 | 23.60596 | -87.47310 | 32010 ft | 427 kts | 322° |
| 2026-05-05 19:19 | 23.65366 | -87.51183 | 32011 ft | 427 kts | 322° |
| 2026-05-05 19:20 | 23.70136 | -87.55065 | 32011 ft | 427 kts | 322° |
| 2026-05-05 19:20 | 23.74905 | -87.58943 | 32031 ft | 427 kts | 321° |
| 2026-05-05 19:21 | 23.79666 | -87.62820 | 32025 ft | 427 kts | 321° |
| 2026-05-05 19:21 | 23.84388 | -87.66674 | 32023 ft | 426 kts | 321° |
| 2026-05-05 19:22 | 23.89133 | -87.70552 | 32024 ft | 426 kts | 321° |
| 2026-05-05 19:22 | 23.93875 | -87.74433 | 32014 ft | 426 kts | 321° |
| 2026-05-05 19:23 | 23.98619 | -87.78313 | 32013 ft | 426 kts | 321° |
| 2026-05-05 19:23 | 24.03356 | -87.82189 | 32015 ft | 425 kts | 321° |
| 2026-05-05 19:24 | 24.08095 | -87.86073 | 32028 ft | 425 kts | 321° |
| 2026-05-05 19:24 | 24.12828 | -87.89950 | 32026 ft | 425 kts | 321° |
| 2026-05-05 19:25 | 24.17554 | -87.93836 | 32023 ft | 425 kts | 321° |
| 2026-05-05 19:25 | 24.22278 | -87.97718 | 32021 ft | 424 kts | 321° |
| 2026-05-05 19:26 | 24.27014 | -88.01603 | 32019 ft | 424 kts | 321° |
| 2026-05-05 19:26 | 24.31731 | -88.05489 | 32019 ft | 424 kts | 321° |
| 2026-05-05 19:27 | 24.36418 | -88.09363 | 32010 ft | 424 kts | 321° |
| 2026-05-05 19:27 | 24.41142 | -88.13256 | 32018 ft | 425 kts | 321° |
| 2026-05-05 19:28 | 24.45859 | -88.17153 | 32016 ft | 425 kts | 321° |
| 2026-05-05 19:28 | 24.50772 | -88.20759 | 32014 ft | 428 kts | 332° |
| 2026-05-05 19:29 | 24.56383 | -88.23043 | 32013 ft | 431 kts | 337° |
| 2026-05-05 19:29 | 24.62037 | -88.25230 | 32012 ft | 431 kts | 337° |
| 2026-05-05 19:30 | 24.67698 | -88.27423 | 32014 ft | 431 kts | 337° |
| 2026-05-05 19:30 | 24.73355 | -88.29618 | 32016 ft | 431 kts | 337° |
| 2026-05-05 19:31 | 24.78972 | -88.31802 | 32018 ft | 431 kts | 337° |
| 2026-05-05 19:31 | 24.84633 | -88.34000 | 32018 ft | 431 kts | 337° |
| 2026-05-05 19:32 | 24.90292 | -88.36199 | 32018 ft | 431 kts | 337° |
| 2026-05-05 19:32 | 24.95951 | -88.38398 | 32019 ft | 431 kts | 337° |
| 2026-05-05 19:33 | 25.01613 | -88.40604 | 32029 ft | 431 kts | 337° |
| 2026-05-05 19:33 | 25.07274 | -88.42812 | 32027 ft | 431 kts | 337° |
| 2026-05-05 19:34 | 25.12929 | -88.45025 | 32023 ft | 431 kts | 337° |
| 2026-05-05 19:35 | 25.21367 | -88.48328 | 32018 ft | 431 kts | 337° |
| 2026-05-05 19:35 | 25.27015 | -88.50542 | 32018 ft | 431 kts | 337° |
| 2026-05-05 19:36 | 25.32666 | -88.52754 | 32031 ft | 431 kts | 337° |
| 2026-05-05 19:36 | 25.38306 | -88.54962 | 32034 ft | 429 kts | 337° |
| 2026-05-05 19:37 | 25.43931 | -88.57169 | 32035 ft | 428 kts | 337° |
| 2026-05-05 19:37 | 25.49546 | -88.59369 | 32033 ft | 428 kts | 337° |
| 2026-05-05 19:38 | 25.55151 | -88.61572 | 32030 ft | 427 kts | 337° |
| 2026-05-05 19:38 | 25.60755 | -88.63781 | 32025 ft | 427 kts | 337° |
| 2026-05-05 19:39 | 25.66356 | -88.65990 | 32038 ft | 427 kts | 336° |
| 2026-05-05 19:39 | 25.71952 | -88.68195 | 32033 ft | 426 kts | 336° |
| 2026-05-05 19:40 | 25.77533 | -88.70401 | 32029 ft | 426 kts | 336° |
| 2026-05-05 19:40 | 25.83123 | -88.72613 | 32026 ft | 426 kts | 336° |
| 2026-05-05 19:41 | 25.88697 | -88.74820 | 32028 ft | 426 kts | 336° |
| 2026-05-05 19:41 | 25.94279 | -88.77032 | 32026 ft | 426 kts | 336° |
| 2026-05-05 19:42 | 25.99858 | -88.79247 | 32029 ft | 426 kts | 336° |
| 2026-05-05 19:42 | 26.05430 | -88.81459 | 32024 ft | 426 kts | 336° |
| 2026-05-05 19:43 | 26.11015 | -88.83675 | 32020 ft | 425 kts | 336° |
| 2026-05-05 19:43 | 26.16593 | -88.85893 | 32018 ft | 425 kts | 336° |
| 2026-05-05 19:44 | 26.22170 | -88.88114 | 32019 ft | 425 kts | 336° |
| 2026-05-05 19:44 | 26.27748 | -88.90331 | 32025 ft | 426 kts | 336° |
| 2026-05-05 19:45 | 26.33327 | -88.92552 | 32021 ft | 426 kts | 336° |
| 2026-05-05 19:45 | 26.38872 | -88.94768 | 32015 ft | 426 kts | 336° |
| 2026-05-05 19:46 | 26.44453 | -88.97000 | 32013 ft | 426 kts | 336° |
| 2026-05-05 19:46 | 26.50035 | -88.99239 | 32015 ft | 426 kts | 336° |
| 2026-05-05 19:47 | 26.55625 | -89.01478 | 32015 ft | 426 kts | 336° |
| 2026-05-05 19:47 | 26.61203 | -89.03710 | 32032 ft | 426 kts | 336° |
| 2026-05-05 19:48 | 26.66771 | -89.05939 | 32039 ft | 424 kts | 335° |
| 2026-05-05 19:48 | 26.72328 | -89.08174 | 32034 ft | 424 kts | 335° |
| 2026-05-05 19:49 | 26.77874 | -89.10406 | 32029 ft | 423 kts | 335° |
| 2026-05-05 19:49 | 26.83421 | -89.12637 | 32023 ft | 423 kts | 335° |
| 2026-05-05 19:50 | 26.88958 | -89.14870 | 32038 ft | 423 kts | 335° |
| 2026-05-05 19:50 | 26.94450 | -89.17097 | 32035 ft | 422 kts | 335° |
| 2026-05-05 19:51 | 26.99973 | -89.19321 | 32026 ft | 421 kts | 335° |
| 2026-05-05 19:51 | 27.05524 | -89.21561 | 32029 ft | 421 kts | 335° |
| 2026-05-05 19:52 | 27.10996 | -89.23774 | 32012 ft | 421 kts | 335° |
| 2026-05-05 19:52 | 27.16497 | -89.26022 | 32006 ft | 421 kts | 335° |
| 2026-05-05 19:53 | 27.21996 | -89.28295 | 32025 ft | 421 kts | 334° |
| 2026-05-05 19:53 | 27.27487 | -89.30568 | 32022 ft | 420 kts | 334° |
| 2026-05-05 19:54 | 27.32047 | -89.32456 | 32021 ft | 420 kts | 335° |
| 2026-05-05 19:54 | 27.37537 | -89.34716 | 32020 ft | 420 kts | 335° |
| 2026-05-05 19:55 | 27.43022 | -89.36978 | 32020 ft | 420 kts | 335° |
| 2026-05-05 19:55 | 27.48507 | -89.39246 | 32031 ft | 420 kts | 334° |
| 2026-05-05 19:56 | 27.53984 | -89.41522 | 32027 ft | 419 kts | 334° |
| 2026-05-05 19:56 | 27.59455 | -89.43791 | 32023 ft | 419 kts | 334° |
| 2026-05-05 19:57 | 27.64922 | -89.46052 | 32021 ft | 418 kts | 334° |
| 2026-05-05 19:57 | 27.70387 | -89.48327 | 32018 ft | 418 kts | 334° |
| 2026-05-05 19:58 | 27.75809 | -89.50593 | 32015 ft | 418 kts | 334° |
| 2026-05-05 19:58 | 27.81270 | -89.52868 | 32013 ft | 418 kts | 334° |
| 2026-05-05 19:59 | 27.86731 | -89.55135 | 32009 ft | 418 kts | 334° |
| 2026-05-05 19:59 | 27.92188 | -89.57413 | 32010 ft | 418 kts | 334° |
| 2026-05-05 20:00 | 27.97647 | -89.59683 | 32010 ft | 418 kts | 334° |
| 2026-05-05 20:00 | 28.03103 | -89.61963 | 32011 ft | 418 kts | 334° |
| 2026-05-05 20:01 | 28.08552 | -89.64251 | 32028 ft | 418 kts | 334° |
| 2026-05-05 20:01 | 28.14005 | -89.66532 | 32021 ft | 418 kts | 334° |
| 2026-05-05 20:02 | 28.19453 | -89.68812 | 32021 ft | 417 kts | 334° |
| 2026-05-05 20:02 | 28.24905 | -89.71102 | 32012 ft | 417 kts | 334° |
| 2026-05-05 20:03 | 28.30354 | -89.73392 | 32011 ft | 417 kts | 334° |
| 2026-05-05 20:03 | 28.35796 | -89.75682 | 32010 ft | 417 kts | 334° |
| 2026-05-05 20:04 | 28.41198 | -89.77964 | 32024 ft | 417 kts | 334° |
| 2026-05-05 20:04 | 28.46633 | -89.80270 | 32022 ft | 416 kts | 334° |
| 2026-05-05 20:05 | 28.52063 | -89.82566 | 32020 ft | 416 kts | 334° |
| 2026-05-05 20:05 | 28.57497 | -89.84854 | 32010 ft | 416 kts | 334° |
| 2026-05-05 20:06 | 28.62934 | -89.87147 | 32009 ft | 416 kts | 334° |
| 2026-05-05 20:06 | 28.68352 | -89.89453 | 32036 ft | 416 kts | 333° |
| 2026-05-05 20:07 | 28.73775 | -89.91757 | 32032 ft | 415 kts | 333° |
| 2026-05-05 20:07 | 28.79191 | -89.94052 | 32012 ft | 415 kts | 333° |
| 2026-05-05 20:08 | 28.84597 | -89.96342 | 32018 ft | 415 kts | 333° |
| 2026-05-05 20:08 | 28.90004 | -89.98641 | 32005 ft | 415 kts | 333° |
| 2026-05-05 20:09 | 28.95404 | -90.00948 | 32001 ft | 414 kts | 333° |
| 2026-05-05 20:09 | 29.00799 | -90.03255 | 32019 ft | 414 kts | 333° |
| 2026-05-05 20:10 | 29.06154 | -90.05543 | 32016 ft | 413 kts | 333° |
| 2026-05-05 20:10 | 29.11541 | -90.07834 | 32013 ft | 413 kts | 333° |
| 2026-05-05 20:11 | 29.16877 | -90.10237 | 32011 ft | 408 kts | 326° |
| 2026-05-05 20:11 | 29.21444 | -90.13902 | 32013 ft | 400 kts | 317° |
| 2026-05-05 20:12 | 29.25827 | -90.17826 | 32038 ft | 400 kts | 317° |
| 2026-05-05 20:12 | 29.30214 | -90.21740 | 32034 ft | 399 kts | 317° |
| 2026-05-05 20:13 | 29.34591 | -90.25652 | 32030 ft | 399 kts | 317° |
| 2026-05-05 20:13 | 29.38957 | -90.29570 | 32027 ft | 398 kts | 317° |
| 2026-05-05 20:14 | 29.43321 | -90.33495 | 32026 ft | 398 kts | 317° |
| 2026-05-05 20:14 | 29.47655 | -90.37395 | 32024 ft | 398 kts | 317° |
| 2026-05-05 20:15 | 29.52011 | -90.41320 | 32009 ft | 398 kts | 316° |
| 2026-05-05 20:15 | 29.56372 | -90.45253 | 32032 ft | 398 kts | 316° |
| 2026-05-05 20:16 | 29.60726 | -90.49178 | 32025 ft | 398 kts | 316° |
| 2026-05-05 20:16 | 29.65079 | -90.53106 | 32020 ft | 397 kts | 316° |
| 2026-05-05 20:17 | 29.69423 | -90.57042 | 32017 ft | 397 kts | 316° |
| 2026-05-05 20:17 | 29.73760 | -90.60976 | 32013 ft | 397 kts | 316° |
| 2026-05-05 20:18 | 29.78096 | -90.64906 | 32008 ft | 397 kts | 316° |
| 2026-05-05 20:18 | 29.82446 | -90.68852 | 31977 ft | 399 kts | 316° |
| 2026-05-05 20:19 | 29.86820 | -90.72820 | 31976 ft | 401 kts | 316° |
| 2026-05-05 20:19 | 29.91218 | -90.76812 | 31960 ft | 403 kts | 316° |
| 2026-05-05 20:20 | 29.95616 | -90.80825 | 31964 ft | 404 kts | 316° |
| 2026-05-05 20:20 | 30.00020 | -90.84854 | 31967 ft | 404 kts | 316° |
| 2026-05-05 20:21 | 30.04433 | -90.88885 | 31973 ft | 404 kts | 316° |
| 2026-05-05 20:21 | 30.08850 | -90.92921 | 31972 ft | 405 kts | 316° |
| 2026-05-05 20:22 | 30.13234 | -90.96934 | 32007 ft | 405 kts | 316° |
| 2026-05-05 20:22 | 30.17641 | -91.00969 | 32000 ft | 404 kts | 316° |
| 2026-05-05 20:23 | 30.22044 | -91.04994 | 31990 ft | 403 kts | 316° |
| 2026-05-05 20:23 | 30.26435 | -91.09025 | 31980 ft | 403 kts | 316° |
| 2026-05-05 20:24 | 30.30817 | -91.13064 | 31978 ft | 402 kts | 316° |
| 2026-05-05 20:24 | 30.35193 | -91.17096 | 31971 ft | 402 kts | 315° |
| 2026-05-05 20:25 | 30.39580 | -91.21145 | 32007 ft | 402 kts | 315° |
| 2026-05-05 20:25 | 30.43958 | -91.25185 | 31992 ft | 402 kts | 315° |
| 2026-05-05 20:26 | 30.48238 | -91.29262 | 31984 ft | 397 kts | 309° |
| 2026-05-05 20:26 | 30.51638 | -91.34210 | 31979 ft | 392 kts | 303° |
| 2026-05-05 20:27 | 30.54909 | -91.39265 | 31956 ft | 392 kts | 303° |
| 2026-05-05 20:27 | 30.58185 | -91.44310 | 31952 ft | 392 kts | 303° |
| 2026-05-05 20:28 | 30.61450 | -91.49369 | 31948 ft | 391 kts | 303° |
| 2026-05-05 20:28 | 30.64719 | -91.54431 | 31946 ft | 391 kts | 302° |
| 2026-05-05 20:29 | 30.67988 | -91.59491 | 31947 ft | 391 kts | 302° |
| 2026-05-05 20:29 | 30.71251 | -91.64550 | 31947 ft | 391 kts | 302° |
| 2026-05-05 20:30 | 30.74496 | -91.69614 | 31942 ft | 391 kts | 302° |
| 2026-05-05 20:30 | 30.77747 | -91.74683 | 31942 ft | 391 kts | 302° |
| 2026-05-05 20:31 | 30.81001 | -91.79749 | 31941 ft | 391 kts | 302° |
| 2026-05-05 20:31 | 30.84250 | -91.84817 | 31939 ft | 391 kts | 302° |
| 2026-05-05 20:32 | 30.87500 | -91.89891 | 31937 ft | 391 kts | 302° |
| 2026-05-05 20:32 | 30.90741 | -91.94969 | 31931 ft | 391 kts | 302° |
| 2026-05-05 20:33 | 30.93952 | -92.00015 | 31935 ft | 391 kts | 302° |
| 2026-05-05 20:33 | 30.97191 | -92.05106 | 31958 ft | 390 kts | 302° |
| 2026-05-05 20:34 | 31.00415 | -92.10168 | 31945 ft | 389 kts | 301° |
| 2026-05-05 20:34 | 31.03639 | -92.15238 | 31945 ft | 389 kts | 301° |
| 2026-05-05 20:35 | 31.06851 | -92.20305 | 31945 ft | 388 kts | 301° |
| 2026-05-05 20:35 | 31.10068 | -92.25372 | 31936 ft | 388 kts | 301° |
| 2026-05-05 20:36 | 31.13276 | -92.30441 | 31917 ft | 388 kts | 301° |
| 2026-05-05 20:36 | 31.16484 | -92.35514 | 31912 ft | 389 kts | 301° |
| 2026-05-05 20:37 | 31.19693 | -92.40599 | 31904 ft | 389 kts | 301° |
| 2026-05-05 20:37 | 31.22911 | -92.45694 | 31942 ft | 389 kts | 301° |
| 2026-05-05 20:38 | 31.25923 | -92.50908 | 31939 ft | 383 kts | 292° |
| 2026-05-05 20:38 | 31.27920 | -92.56639 | 31932 ft | 380 kts | 289° |
| 2026-05-05 20:39 | 31.29863 | -92.62343 | 31928 ft | 380 kts | 289° |
| 2026-05-05 20:39 | 31.31830 | -92.68092 | 31920 ft | 380 kts | 288° |
| 2026-05-05 20:40 | 31.33785 | -92.73834 | 31912 ft | 380 kts | 288° |
| 2026-05-05 20:40 | 31.35736 | -92.79584 | 31907 ft | 380 kts | 288° |
| 2026-05-05 20:41 | 31.37682 | -92.85331 | 31897 ft | 380 kts | 288° |
| 2026-05-05 20:41 | 31.39632 | -92.91084 | 31882 ft | 380 kts | 288° |
| 2026-05-05 20:42 | 31.41580 | -92.96834 | 31880 ft | 380 kts | 288° |
| 2026-05-05 20:42 | 31.43507 | -93.02560 | 31881 ft | 380 kts | 288° |
| 2026-05-05 20:43 | 31.45446 | -93.08324 | 31879 ft | 380 kts | 288° |
| 2026-05-05 20:43 | 31.47380 | -93.14091 | 31882 ft | 380 kts | 288° |
| 2026-05-05 20:44 | 31.49316 | -93.19854 | 31905 ft | 380 kts | 288° |
| 2026-05-05 20:44 | 31.51249 | -93.25610 | 31897 ft | 379 kts | 288° |
| 2026-05-05 20:45 | 31.54129 | -93.34227 | 31888 ft | 378 kts | 287° |
| 2026-05-05 20:45 | 31.55712 | -93.38992 | 31880 ft | 377 kts | 287° |
| 2026-05-05 20:46 | 31.57617 | -93.44732 | 31878 ft | 377 kts | 287° |
| 2026-05-05 20:46 | 31.59528 | -93.50470 | 31870 ft | 377 kts | 287° |
| 2026-05-05 20:47 | 31.61358 | -93.56224 | 31867 ft | 375 kts | 285° |
| 2026-05-05 20:47 | 31.62852 | -93.62084 | 31864 ft | 375 kts | 283° |
| 2026-05-05 20:48 | 31.64247 | -93.67974 | 31864 ft | 375 kts | 283° |
| 2026-05-05 20:48 | 31.65685 | -93.73853 | 31863 ft | 375 kts | 283° |
| 2026-05-05 20:49 | 31.67159 | -93.79717 | 31856 ft | 375 kts | 283° |
| 2026-05-05 20:49 | 31.68626 | -93.85549 | 31855 ft | 374 kts | 283° |
| 2026-05-05 20:50 | 31.70098 | -93.91409 | 31851 ft | 374 kts | 283° |
| 2026-05-05 20:50 | 31.71564 | -93.97272 | 31850 ft | 374 kts | 283° |
| 2026-05-05 20:51 | 31.73029 | -94.03134 | 31855 ft | 374 kts | 283° |
| 2026-05-05 20:51 | 31.74485 | -94.09000 | 31881 ft | 373 kts | 283° |
| 2026-05-05 20:52 | 31.75938 | -94.14852 | 31873 ft | 372 kts | 283° |
| 2026-05-05 20:52 | 31.77380 | -94.20680 | 31860 ft | 371 kts | 283° |
| 2026-05-05 20:53 | 31.78806 | -94.26465 | 31856 ft | 370 kts | 283° |
| 2026-05-05 20:53 | 31.80239 | -94.32281 | 31844 ft | 370 kts | 283° |
| 2026-05-05 20:54 | 31.81667 | -94.38092 | 31844 ft | 370 kts | 282° |
| 2026-05-05 20:54 | 31.83093 | -94.43906 | 31834 ft | 370 kts | 282° |
| 2026-05-05 20:55 | 31.84513 | -94.49716 | 31836 ft | 370 kts | 282° |
| 2026-05-05 20:55 | 31.85926 | -94.55528 | 31835 ft | 370 kts | 282° |
| 2026-05-05 20:56 | 31.87341 | -94.61340 | 31835 ft | 369 kts | 282° |
| 2026-05-05 20:56 | 31.88759 | -94.67151 | 31823 ft | 370 kts | 282° |
| 2026-05-05 20:57 | 31.90171 | -94.72971 | 31822 ft | 370 kts | 282° |
| 2026-05-05 20:57 | 31.91580 | -94.78795 | 31824 ft | 370 kts | 282° |
| 2026-05-05 20:58 | 31.92986 | -94.84623 | 31821 ft | 370 kts | 282° |
| 2026-05-05 20:58 | 31.94388 | -94.90444 | 31823 ft | 369 kts | 282° |
| 2026-05-05 20:59 | 31.95792 | -94.96267 | 31817 ft | 369 kts | 282° |
| 2026-05-05 20:59 | 31.97178 | -95.02045 | 31803 ft | 369 kts | 282° |
| 2026-05-05 21:00 | 31.98571 | -95.07874 | 31832 ft | 369 kts | 282° |
| 2026-05-05 21:00 | 31.99958 | -95.13683 | 31824 ft | 368 kts | 282° |
| 2026-05-05 21:01 | 32.01342 | -95.19481 | 31819 ft | 368 kts | 282° |
| 2026-05-05 21:01 | 32.02722 | -95.25279 | 31816 ft | 367 kts | 282° |
| 2026-05-05 21:02 | 32.04100 | -95.31074 | 31811 ft | 366 kts | 282° |
| 2026-05-05 21:02 | 32.05474 | -95.36861 | 31793 ft | 366 kts | 281° |
| 2026-05-05 21:03 | 32.06844 | -95.42650 | 31788 ft | 367 kts | 281° |
| 2026-05-05 21:03 | 32.08206 | -95.48446 | 31789 ft | 367 kts | 281° |
| 2026-05-05 21:04 | 32.09564 | -95.54211 | 31790 ft | 367 kts | 281° |
| 2026-05-05 21:04 | 32.10927 | -95.60016 | 31791 ft | 367 kts | 281° |
| 2026-05-05 21:05 | 32.12289 | -95.65821 | 31796 ft | 367 kts | 281° |
| 2026-05-05 21:05 | 32.13653 | -95.71630 | 31797 ft | 367 kts | 281° |
| 2026-05-05 21:06 | 32.15007 | -95.77430 | 31795 ft | 367 kts | 281° |
| 2026-05-05 21:06 | 32.15685 | -95.80339 | 31576 ft | 367 kts | 281° |
| 2026-05-05 21:06 | 32.16363 | -95.83251 | 31339 ft | 368 kts | 281° |
| 2026-05-05 21:07 | 32.17038 | -95.86169 | 31109 ft | 369 kts | 281° |
| 2026-05-05 21:07 | 32.17712 | -95.89091 | 30862 ft | 370 kts | 281° |
| 2026-05-05 21:07 | 32.18390 | -95.92026 | 30469 ft | 371 kts | 281° |
| 2026-05-05 21:07 | 32.19071 | -95.94980 | 29697 ft | 374 kts | 281° |
| 2026-05-05 21:08 | 32.19755 | -95.97938 | 29132 ft | 372 kts | 281° |
| 2026-05-05 21:08 | 32.20436 | -96.00871 | 28596 ft | 369 kts | 281° |
| 2026-05-05 21:08 | 32.21112 | -96.03776 | 28067 ft | 366 kts | 281° |
| 2026-05-05 21:08 | 32.21779 | -96.06655 | 27543 ft | 362 kts | 281° |
| 2026-05-05 21:09 | 32.22440 | -96.09514 | 27029 ft | 359 kts | 281° |
| 2026-05-05 21:09 | 32.23081 | -96.12309 | 26507 ft | 356 kts | 281° |
| 2026-05-05 21:09 | 32.23725 | -96.15123 | 26000 ft | 353 kts | 281° |
| 2026-05-05 21:09 | 32.24362 | -96.17909 | 25475 ft | 351 kts | 281° |
| 2026-05-05 21:10 | 32.24999 | -96.20689 | 24980 ft | 349 kts | 281° |
| 2026-05-05 21:10 | 32.25631 | -96.23444 | 24479 ft | 346 kts | 281° |
| 2026-05-05 21:10 | 32.26259 | -96.26183 | 23984 ft | 344 kts | 281° |
| 2026-05-05 21:10 | 32.26881 | -96.28909 | 23479 ft | 343 kts | 281° |
| 2026-05-05 21:11 | 32.27714 | -96.31553 | 22919 ft | 346 kts | 291° |
| 2026-05-05 21:11 | 32.29026 | -96.33966 | 22340 ft | 354 kts | 302° |
| 2026-05-05 21:11 | 32.30764 | -96.36091 | 21691 ft | 361 kts | 308° |
| 2026-05-05 21:11 | 32.32554 | -96.38129 | 21056 ft | 363 kts | 308° |
| 2026-05-05 21:12 | 32.34382 | -96.40215 | 20446 ft | 365 kts | 308° |
| 2026-05-05 21:12 | 32.36191 | -96.42281 | 19793 ft | 360 kts | 308° |
| 2026-05-05 21:12 | 32.37981 | -96.44331 | 19129 ft | 355 kts | 308° |
| 2026-05-05 21:12 | 32.39751 | -96.46362 | 18510 ft | 354 kts | 308° |
| 2026-05-05 21:13 | 32.41523 | -96.48403 | 17864 ft | 356 kts | 308° |
| 2026-05-05 21:13 | 32.43300 | -96.50453 | 17259 ft | 356 kts | 308° |
| 2026-05-05 21:13 | 32.45052 | -96.52472 | 17013 ft | 346 kts | 308° |
| 2026-05-05 21:13 | 32.46756 | -96.54428 | 16764 ft | 336 kts | 307° |
| 2026-05-05 21:14 | 32.48416 | -96.56335 | 16504 ft | 328 kts | 307° |
| 2026-05-05 21:14 | 32.50043 | -96.58209 | 16257 ft | 326 kts | 307° |
| 2026-05-05 21:14 | 32.51666 | -96.60075 | 16010 ft | 325 kts | 307° |
| 2026-05-05 21:14 | 32.53288 | -96.61940 | 15768 ft | 324 kts | 307° |
| 2026-05-05 21:15 | 32.54906 | -96.63798 | 15455 ft | 323 kts | 308° |
| 2026-05-05 21:15 | 32.56518 | -96.65647 | 15061 ft | 321 kts | 308° |
| 2026-05-05 21:15 | 32.58132 | -96.67492 | 14395 ft | 326 kts | 308° |
| 2026-05-05 21:15 | 32.59769 | -96.69344 | 13775 ft | 321 kts | 309° |
| 2026-05-05 21:16 | 32.61366 | -96.71129 | 13381 ft | 310 kts | 309° |
| 2026-05-05 21:16 | 32.62910 | -96.72847 | 13239 ft | 299 kts | 309° |
| 2026-05-05 21:16 | 32.64398 | -96.74507 | 13102 ft | 289 kts | 308° |
| 2026-05-05 21:16 | 32.65842 | -96.76129 | 12814 ft | 283 kts | 308° |
| 2026-05-05 21:17 | 32.67257 | -96.77731 | 12588 ft | 280 kts | 308° |
| 2026-05-05 21:17 | 32.68657 | -96.79323 | 12338 ft | 278 kts | 308° |
| 2026-05-05 21:17 | 32.70036 | -96.80893 | 12093 ft | 278 kts | 309° |
| 2026-05-05 21:17 | 32.71430 | -96.82481 | 11896 ft | 274 kts | 308° |
| 2026-05-05 21:18 | 32.72800 | -96.84047 | 12005 ft | 276 kts | 308° |
| 2026-05-05 21:18 | 32.74186 | -96.85631 | 12023 ft | 277 kts | 308° |
| 2026-05-05 21:18 | 32.75561 | -96.87200 | 12022 ft | 276 kts | 308° |
| 2026-05-05 21:18 | 32.76916 | -96.88732 | 12008 ft | 262 kts | 308° |
| 2026-05-05 21:19 | 32.78244 | -96.90196 | 12012 ft | 262 kts | 314° |
| 2026-05-05 21:19 | 32.79887 | -96.91241 | 12006 ft | 277 kts | 335° |
| 2026-05-05 21:19 | 32.81845 | -96.91530 | 11705 ft | 290 kts | 353° |
| 2026-05-05 21:19 | 32.83859 | -96.91502 | 11426 ft | 288 kts | 353° |
| 2026-05-05 21:20 | 32.85852 | -96.91473 | 11160 ft | 285 kts | 353° |
| 2026-05-05 21:20 | 32.87830 | -96.91446 | 10899 ft | 283 kts | 353° |
| 2026-05-05 21:20 | 32.89799 | -96.91429 | 10637 ft | 282 kts | 353° |
| 2026-05-05 21:20 | 32.91750 | -96.91419 | 10398 ft | 280 kts | 353° |
| 2026-05-05 21:21 | 32.93698 | -96.91408 | 10142 ft | 279 kts | 354° |
| 2026-05-05 21:21 | 32.95630 | -96.91394 | 9882 ft | 277 kts | 354° |
| 2026-05-05 21:21 | 32.97555 | -96.91382 | 9632 ft | 275 kts | 354° |
| 2026-05-05 21:21 | 32.99464 | -96.91371 | 9357 ft | 274 kts | 354° |
| 2026-05-05 21:22 | 33.01366 | -96.91358 | 9103 ft | 273 kts | 354° |
| 2026-05-05 21:22 | 33.03259 | -96.91345 | 8852 ft | 271 kts | 354° |
| 2026-05-05 21:22 | 33.05138 | -96.91332 | 8576 ft | 269 kts | 354° |
| 2026-05-05 21:22 | 33.07005 | -96.91323 | 8331 ft | 268 kts | 354° |
| 2026-05-05 21:23 | 33.08865 | -96.91313 | 8092 ft | 267 kts | 354° |
| 2026-05-05 21:23 | 33.10718 | -96.91303 | 7848 ft | 265 kts | 354° |
| 2026-05-05 21:23 | 33.12543 | -96.91285 | 7437 ft | 270 kts | 355° |
| 2026-05-05 21:23 | 33.14473 | -96.91256 | 6846 ft | 282 kts | 355° |
| 2026-05-05 21:24 | 33.16449 | -96.91237 | 6626 ft | 277 kts | 355° |
| 2026-05-05 21:24 | 33.18315 | -96.91236 | 6518 ft | 266 kts | 354° |
| 2026-05-05 21:24 | 33.20125 | -96.91332 | 6410 ft | 257 kts | 342° |
| 2026-05-05 21:24 | 33.21719 | -96.92093 | 6300 ft | 242 kts | 320° |
| 2026-05-05 21:25 | 33.22885 | -96.93483 | 6249 ft | 234 kts | 298° |
| 2026-05-05 21:25 | 33.23491 | -96.95249 | 6208 ft | 229 kts | 277° |
| 2026-05-05 21:25 | 33.23493 | -96.97135 | 6158 ft | 228 kts | 258° |
| 2026-05-05 21:25 | 33.22911 | -96.98899 | 6117 ft | 230 kts | 241° |
| 2026-05-05 21:26 | 33.22115 | -97.00562 | 6069 ft | 231 kts | 242° |
| 2026-05-05 21:26 | 33.21327 | -97.02228 | 6016 ft | 231 kts | 242° |
| 2026-05-05 21:26 | 33.20405 | -97.03793 | 5964 ft | 233 kts | 226° |
| 2026-05-05 21:26 | 33.19058 | -97.04901 | 5889 ft | 241 kts | 207° |
| 2026-05-05 21:27 | 33.17416 | -97.05341 | 5474 ft | 252 kts | 184° |
| 2026-05-05 21:27 | 33.15651 | -97.05348 | 5125 ft | 254 kts | 184° |
| 2026-05-05 21:27 | 33.13909 | -97.05348 | 4801 ft | 249 kts | 183° |
| 2026-05-05 21:27 | 33.12203 | -97.05355 | 4479 ft | 241 kts | 183° |
| 2026-05-05 21:28 | 33.10551 | -97.05364 | 4164 ft | 233 kts | 183° |
| 2026-05-05 21:28 | 33.08947 | -97.05373 | 3873 ft | 229 kts | 185° |
| 2026-05-05 21:28 | 33.07354 | -97.05382 | 3580 ft | 228 kts | 185° |
| 2026-05-05 21:28 | 33.05781 | -97.05390 | 3308 ft | 222 kts | 185° |
| 2026-05-05 21:29 | 33.04269 | -97.05397 | 3005 ft | 212 kts | 185° |
| 2026-05-05 21:29 | 33.02825 | -97.05405 | 2733 ft | 204 kts | 184° |
| 2026-05-05 21:29 | 33.01433 | -97.05412 | 2476 ft | 196 kts | 185° |
| 2026-05-05 21:29 | 33.00090 | -97.05420 | 2241 ft | 191 kts | 182° |
| 2026-05-05 21:30 | 32.98779 | -97.05426 | 1985 ft | 185 kts | 186° |
| 2026-05-05 21:30 | 32.97523 | -97.05432 | 1771 ft | 174 kts | 185° |
| 2026-05-05 21:30 | 32.96348 | -97.05438 | 1555 ft | 167 kts | 184° |
| 2026-05-05 21:30 | 32.95226 | -97.05442 | 1360 ft | 157 kts | 184° |
| 2026-05-05 21:31 | 32.94160 | -97.05449 | 1159 ft | 150 kts | 183° |
| 2026-05-05 21:31 | 32.93135 | -97.05452 | 1006 ft | 144 kts | 186° |
| 2026-05-05 21:31 | 32.92110 | -97.05460 | 775 ft | 146 kts | 182° |
| 2026-05-05 21:31 | 32.91111 | -97.05464 | 629 ft | 137 kts | 182° |
| 2026-05-05 21:32 | 32.90296 | -97.05473 | 611 ft | 95 kts | 180° |
| 2026-05-05 21:32 | 32.89807 | -97.05474 | 613 ft | 45 kts | 178° |
| 2026-05-05 21:32 | 32.89565 | -97.05387 | 607 ft | 28 kts | 152° |
| 2026-05-05 21:32 | 32.89422 | -97.05288 | 600 ft | 20 kts | 140° |
| 2026-05-05 21:33 | 32.89399 | -97.05132 | 597 ft | 19 kts | 93° |
| 2026-05-05 21:33 | 32.89402 | -97.04980 | 599 ft | 17 kts | 90° |
| 2026-05-05 21:33 | 32.89402 | -97.04845 | 596 ft | 18 kts | 90° |
| 2026-05-05 21:33 | 32.89438 | -97.04768 | 595 ft | 11 kts | 4° |
| 2026-05-05 21:34 | 32.89514 | -97.04764 | 596 ft | 10 kts | 2° |
| 2026-05-05 21:34 | 32.89561 | -97.04762 | 597 ft | 10 kts | 1° |
| 2026-05-05 21:34 | 32.89634 | -97.04763 | 598 ft | 13 kts | 358° |
| 2026-05-05 21:34 | 32.89768 | -97.04765 | 597 ft | 16 kts | 0° |
| 2026-05-05 21:35 | 32.89880 | -97.04765 | 597 ft | 16 kts | 0° |
| 2026-05-05 21:35 | 32.89992 | -97.04764 | 599 ft | 16 kts | 0° |
| 2026-05-05 21:35 | 32.90070 | -97.04759 | 598 ft | 8 kts | 25° |
| 2026-05-05 21:35 | 32.90082 | -97.04716 | 597 ft | 9 kts | 88° |
| 2026-05-05 21:36 | 32.90082 | -97.04637 | 598 ft | 10 kts | 90° |
| 2026-05-05 21:36 | 32.90081 | -97.04553 | 598 ft | 11 kts | 90° |
| 2026-05-05 21:36 | 32.90081 | -97.04463 | 598 ft | 11 kts | 90° |
| 2026-05-05 21:36 | 32.90077 | -97.04372 | 598 ft | 11 kts | 98° |
| 2026-05-05 21:37 | 32.90058 | -97.04289 | 599 ft | 7 kts | 108° |
| 2026-05-05 21:37 | 32.90037 | -97.04264 | 599 ft | 4 kts | 162° |
| 2026-05-05 21:37 | 32.90012 | -97.04263 | 599 ft | 2 kts | 181° |
| 2026-05-05 21:37 | 32.90004 | -97.04263 | 599 ft | 1 kts | 181° |